Laona, Minnesota
Current Conditions -  °F | °C
As of 6:54 AM on Saturday 22 Nov 2014 (Local Time) from KRRT Reporting Station
Overcast Overcast  
Wind Chill: 32°   Ceiling: 1600
Heat Index: 32°   Visibility: 10mi
Dew Point: 28°   Wind: 0mph
Humidity: 87%   Direction: NA
Pressure: 29.61"   Gusts: NA
Location:  48.6345°N, 95.1786°W
Report Text: KRRT 221254Z AUTO 00000KT 10SM OVC016 00/M02 A2961 RMK AO2
Loading
Personal Weather Stations






























Interactive Weather Map New forecast layout! Learn more

10-Day Weather Forecast

Advertisements
Track Severe Weather on mobile